sensor_id;sensor_type;location;lat;lon;timestamp;pressure;altitude;pressure_sealevel;temperature;humidity
50268;BME280;36153;50.960;6.220;2023-03-13T00:01:45;99432.94;;;15.79;52.61
50268;BME280;36153;50.960;6.220;2023-03-13T00:04:47;99426.28;;;15.66;53.61
50268;BME280;36153;50.960;6.220;2023-03-13T00:07:48;99416.56;;;15.35;54.29
50268;BME280;36153;50.960;6.220;2023-03-13T00:10:50;99415.22;;;15.55;54.12
50268;BME280;36153;50.960;6.220;2023-03-13T00:13:56;99409.06;;;15.56;53.66
50268;BME280;36153;50.960;6.220;2023-03-13T00:16:58;99413.97;;;15.68;53.85
50268;BME280;36153;50.960;6.220;2023-03-13T00:19:59;99388.06;;;15.56;54.73
50268;BME280;36153;50.960;6.220;2023-03-13T00:23:01;99394.09;;;15.59;54.42
50268;BME280;36153;50.960;6.220;2023-03-13T00:26:11;99388.75;;;15.62;54.01
50268;BME280;36153;50.960;6.220;2023-03-13T00:29:13;99383.84;;;15.50;55.00
50268;BME280;36153;50.960;6.220;2023-03-13T00:32:14;99367.09;;;15.56;54.69
50268;BME280;36153;50.960;6.220;2023-03-13T00:35:15;99363.44;;;15.61;54.54
50268;BME280;36153;50.960;6.220;2023-03-13T00:38:16;99362.59;;;15.61;54.17
50268;BME280;36153;50.960;6.220;2023-03-13T00:41:25;99355.22;;;15.42;55.44
50268;BME280;36153;50.960;6.220;2023-03-13T00:44:25;99357.00;;;15.73;54.13
50268;BME280;36153;50.960;6.220;2023-03-13T00:47:26;99347.03;;;15.55;54.92
50268;BME280;36153;50.960;6.220;2023-03-13T00:50:26;99345.94;;;15.62;54.68
50268;BME280;36153;50.960;6.220;2023-03-13T00:53:27;99340.25;;;15.77;54.40
50268;BME280;36153;50.960;6.220;2023-03-13T00:56:27;99343.78;;;15.76;54.55
50268;BME280;36153;50.960;6.220;2023-03-13T00:59:27;99333.97;;;15.84;54.31
50268;BME280;36153;50.960;6.220;2023-03-13T01:02:28;99321.00;;;15.78;54.94
50268;BME280;36153;50.960;6.220;2023-03-13T01:05:28;99316.00;;;15.69;55.03
50268;BME280;36153;50.960;6.220;2023-03-13T01:08:29;99315.03;;;15.73;55.49
50268;BME280;36153;50.960;6.220;2023-03-13T01:11:31;99318.63;;;15.69;54.99
50268;BME280;36153;50.960;6.220;2023-03-13T01:14:33;99319.41;;;15.41;56.96
50268;BME280;36153;50.960;6.220;2023-03-13T01:17:33;99300.16;;;15.72;56.44
50268;BME280;36153;50.960;6.220;2023-03-13T01:20:33;99300.41;;;15.33;57.55
50268;BME280;36153;50.960;6.220;2023-03-13T01:23:34;99292.00;;;15.51;57.79
50268;BME280;36153;50.960;6.220;2023-03-13T01:26:34;99283.59;;;15.40;58.44
50268;BME280;36153;50.960;6.220;2023-03-13T01:29:34;99272.94;;;15.46;59.20
50268;BME280;36153;50.960;6.220;2023-03-13T01:32:35;99283.59;;;15.40;59.93
50268;BME280;36153;50.960;6.220;2023-03-13T01:35:35;99270.84;;;15.26;60.27
50268;BME280;36153;50.960;6.220;2023-03-13T01:38:37;99264.16;;;15.16;60.76
50268;BME280;36153;50.960;6.220;2023-03-13T01:41:37;99250.50;;;15.36;60.22
50268;BME280;36153;50.960;6.220;2023-03-13T01:44:53;99241.94;;;15.29;60.77
50268;BME280;36153;50.960;6.220;2023-03-13T01:47:53;99244.16;;;15.43;59.84
50268;BME280;36153;50.960;6.220;2023-03-13T01:50:55;99237.16;;;15.44;60.37
50268;BME280;36153;50.960;6.220;2023-03-13T02:00:25;99206.09;;;15.30;61.91
50268;BME280;36153;50.960;6.220;2023-03-13T02:03:27;99212.00;;;15.38;62.55
50268;BME280;36153;50.960;6.220;2023-03-13T02:06:29;99209.81;;;15.21;62.11
50268;BME280;36153;50.960;6.220;2023-03-13T02:09:32;99218.13;;;15.37;62.82
50268;BME280;36153;50.960;6.220;2023-03-13T02:12:36;99208.03;;;15.23;63.45
50268;BME280;36153;50.960;6.220;2023-03-13T02:15:39;99197.41;;;15.28;63.43
50268;BME280;36153;50.960;6.220;2023-03-13T02:18:40;99191.06;;;15.35;63.26
50268;BME280;36153;50.960;6.220;2023-03-13T02:21:52;99195.91;;;15.19;63.47
50268;BME280;36153;50.960;6.220;2023-03-13T02:25:11;99201.75;;;15.29;62.73
50268;BME280;36153;50.960;6.220;2023-03-13T02:28:23;99193.63;;;15.38;62.87
50268;BME280;36153;50.960;6.220;2023-03-13T02:31:24;99188.19;;;15.44;62.77
50268;BME280;36153;50.960;6.220;2023-03-13T02:34:32;99175.34;;;15.35;62.93
50268;BME280;36153;50.960;6.220;2023-03-13T02:37:34;99160.97;;;15.48;62.43
50268;BME280;36153;50.960;6.220;2023-03-13T02:40:37;99161.81;;;15.50;62.51
50268;BME280;36153;50.960;6.220;2023-03-13T02:43:39;99145.38;;;15.44;62.57
50268;BME280;36153;50.960;6.220;2023-03-13T02:46:48;99143.44;;;15.50;62.38
50268;BME280;36153;50.960;6.220;2023-03-13T02:49:52;99126.41;;;15.64;62.07
50268;BME280;36153;50.960;6.220;2023-03-13T02:52:55;99118.63;;;15.61;61.90
50268;BME280;36153;50.960;6.220;2023-03-13T02:55:57;99109.78;;;15.65;62.10
50268;BME280;36153;50.960;6.220;2023-03-13T02:58:58;99097.25;;;15.73;61.88
50268;BME280;36153;50.960;6.220;2023-03-13T03:01:58;99095.31;;;15.51;62.31
50268;BME280;36153;50.960;6.220;2023-03-13T03:05:02;99104.41;;;15.68;62.16
50268;BME280;36153;50.960;6.220;2023-03-13T03:08:02;99121.59;;;15.78;61.86
50268;BME280;36153;50.960;6.220;2023-03-13T03:11:04;99118.41;;;15.68;62.35
50268;BME280;36153;50.960;6.220;2023-03-13T03:14:05;99114.69;;;15.76;62.34
50268;BME280;36153;50.960;6.220;2023-03-13T03:17:05;99103.19;;;15.51;62.55
50268;BME280;36153;50.960;6.220;2023-03-13T03:20:06;99103.41;;;15.72;62.27
50268;BME280;36153;50.960;6.220;2023-03-13T03:23:10;99104.91;;;15.52;63.24
50268;BME280;36153;50.960;6.220;2023-03-13T03:26:11;99108.66;;;15.72;62.68
50268;BME280;36153;50.960;6.220;2023-03-13T03:29:11;99099.22;;;15.66;63.37
50268;BME280;36153;50.960;6.220;2023-03-13T03:32:11;99098.16;;;15.72;62.90
50268;BME280;36153;50.960;6.220;2023-03-13T03:35:12;99075.41;;;15.73;63.26
50268;BME280;36153;50.960;6.220;2023-03-13T03:38:12;99068.69;;;15.64;63.74
50268;BME280;36153;50.960;6.220;2023-03-13T03:41:14;99072.56;;;15.80;63.67
50268;BME280;36153;50.960;6.220;2023-03-13T03:44:14;99083.31;;;15.99;63.08
50268;BME280;36153;50.960;6.220;2023-03-13T03:47:15;99073.97;;;15.91;63.30
50268;BME280;36153;50.960;6.220;2023-03-13T03:50:15;99092.66;;;16.08;62.22
50268;BME280;36153;50.960;6.220;2023-03-13T03:53:16;99071.63;;;15.83;62.97
50268;BME280;36153;50.960;6.220;2023-03-13T03:56:16;99071.94;;;15.99;62.83
50268;BME280;36153;50.960;6.220;2023-03-13T03:59:16;99065.94;;;16.22;62.07
50268;BME280;36153;50.960;6.220;2023-03-13T04:02:16;99072.97;;;16.21;62.33
50268;BME280;36153;50.960;6.220;2023-03-13T04:05:17;99068.84;;;16.13;62.60
50268;BME280;36153;50.960;6.220;2023-03-13T04:08:17;99081.78;;;16.19;62.27
50268;BME280;36153;50.960;6.220;2023-03-13T04:11:18;99077.88;;;16.31;62.25
50268;BME280;36153;50.960;6.220;2023-03-13T04:14:19;99075.25;;;16.31;62.11
50268;BME280;36153;50.960;6.220;2023-03-13T04:17:19;99064.41;;;16.40;61.89
50268;BME280;36153;50.960;6.220;2023-03-13T04:20:20;99094.25;;;16.12;62.91
50268;BME280;36153;50.960;6.220;2023-03-13T04:23:20;99060.84;;;16.17;62.52
50268;BME280;36153;50.960;6.220;2023-03-13T04:26:20;99055.91;;;16.33;62.20
50268;BME280;36153;50.960;6.220;2023-03-13T04:29:20;99051.72;;;16.28;62.29
50268;BME280;36153;50.960;6.220;2023-03-13T04:32:21;99064.53;;;16.37;61.89
50268;BME280;36153;50.960;6.220;2023-03-13T04:35:21;99052.47;;;16.31;62.69
50268;BME280;36153;50.960;6.220;2023-03-13T04:38:22;99053.91;;;16.40;62.21
50268;BME280;36153;50.960;6.220;2023-03-13T04:41:25;99056.78;;;16.34;62.45
50268;BME280;36153;50.960;6.220;2023-03-13T04:44:25;99037.34;;;16.38;62.29
50268;BME280;36153;50.960;6.220;2023-03-13T04:47:26;99039.94;;;16.40;62.29
50268;BME280;36153;50.960;6.220;2023-03-13T04:50:26;99034.25;;;16.27;62.82
50268;BME280;36153;50.960;6.220;2023-03-13T04:53:27;99048.94;;;16.58;61.96
50268;BME280;36153;50.960;6.220;2023-03-13T04:56:27;99027.78;;;16.37;62.58
50268;BME280;36153;50.960;6.220;2023-03-13T04:59:27;99034.00;;;16.58;61.54
50268;BME280;36153;50.960;6.220;2023-03-13T05:02:28;99019.44;;;16.49;62.00
50268;BME280;36153;50.960;6.220;2023-03-13T05:05:28;98999.00;;;16.81;60.68
50268;BME280;36153;50.960;6.220;2023-03-13T05:08:28;98998.84;;;16.62;61.48
50268;BME280;36153;50.960;6.220;2023-03-13T05:11:29;99001.91;;;16.50;61.75
50268;BME280;36153;50.960;6.220;2023-03-13T05:14:29;98995.31;;;16.62;61.36
50268;BME280;36153;50.960;6.220;2023-03-13T05:17:30;99000.44;;;16.90;60.20
50268;BME280;36153;50.960;6.220;2023-03-13T05:20:31;99007.78;;;16.80;60.40
50268;BME280;36153;50.960;6.220;2023-03-13T05:23:31;98989.00;;;16.67;60.85
50268;BME280;36153;50.960;6.220;2023-03-13T05:26:32;98972.31;;;16.68;60.81
50268;BME280;36153;50.960;6.220;2023-03-13T05:29:32;98980.25;;;16.67;60.79
50268;BME280;36153;50.960;6.220;2023-03-13T05:32:32;98984.91;;;16.82;60.21
50268;BME280;36153;50.960;6.220;2023-03-13T05:35:33;98991.69;;;16.89;59.91
50268;BME280;36153;50.960;6.220;2023-03-13T05:38:33;99012.72;;;16.89;60.16
50268;BME280;36153;50.960;6.220;2023-03-13T05:41:33;99012.56;;;16.94;60.13
50268;BME280;36153;50.960;6.220;2023-03-13T05:44:34;99012.06;;;16.83;60.16
50268;BME280;36153;50.960;6.220;2023-03-13T05:47:35;99035.19;;;16.98;59.98
50268;BME280;36153;50.960;6.220;2023-03-13T05:50:35;99015.63;;;16.82;60.54
50268;BME280;36153;50.960;6.220;2023-03-13T05:53:35;99020.94;;;16.80;60.46
50268;BME280;36153;50.960;6.220;2023-03-13T05:56:36;99026.78;;;16.88;60.09
50268;BME280;36153;50.960;6.220;2023-03-13T05:59:36;99023.56;;;17.04;60.02
50268;BME280;36153;50.960;6.220;2023-03-13T06:02:36;99021.66;;;17.08;59.75
50268;BME280;36153;50.960;6.220;2023-03-13T06:05:37;99011.59;;;16.97;59.82
50268;BME280;36153;50.960;6.220;2023-03-13T06:08:37;99016.16;;;16.92;59.90
50268;BME280;36153;50.960;6.220;2023-03-13T06:11:37;99021.38;;;17.15;59.27
50268;BME280;36153;50.960;6.220;2023-03-13T06:14:38;99025.84;;;17.13;59.13
50268;BME280;36153;50.960;6.220;2023-03-13T06:17:38;99021.97;;;16.76;60.38
50268;BME280;36153;50.960;6.220;2023-03-13T06:20:38;99020.31;;;16.97;59.49
50268;BME280;36153;50.960;6.220;2023-03-13T06:23:39;99011.94;;;17.10;59.12
50268;BME280;36153;50.960;6.220;2023-03-13T06:26:41;99018.50;;;16.99;59.39
50268;BME280;36153;50.960;6.220;2023-03-13T06:29:41;99011.47;;;17.00;59.27
50268;BME280;36153;50.960;6.220;2023-03-13T06:32:41;99016.59;;;17.03;59.11
50268;BME280;36153;50.960;6.220;2023-03-13T06:35:42;99020.19;;;17.00;59.22
50268;BME280;36153;50.960;6.220;2023-03-13T06:38:42;99030.03;;;16.95;59.23
50268;BME280;36153;50.960;6.220;2023-03-13T06:41:43;99021.41;;;16.92;59.09
50268;BME280;36153;50.960;6.220;2023-03-13T06:44:43;99028.88;;;17.02;58.69
50268;BME280;36153;50.960;6.220;2023-03-13T06:47:43;99028.22;;;17.19;58.16
50268;BME280;36153;50.960;6.220;2023-03-13T06:50:44;99031.78;;;16.95;58.09
50268;BME280;36153;50.960;6.220;2023-03-13T06:53:46;99026.88;;;17.09;58.13
50268;BME280;36153;50.960;6.220;2023-03-13T06:56:46;98997.81;;;16.90;57.94
50268;BME280;36153;50.960;6.220;2023-03-13T06:59:47;99006.00;;;17.04;57.75
50268;BME280;36153;50.960;6.220;2023-03-13T07:02:47;99006.63;;;17.33;56.72
50268;BME280;36153;50.960;6.220;2023-03-13T07:05:47;99019.78;;;17.33;56.13
50268;BME280;36153;50.960;6.220;2023-03-13T07:08:48;98999.09;;;17.46;56.02
50268;BME280;36153;50.960;6.220;2023-03-13T07:11:48;99000.63;;;17.52;55.82
50268;BME280;36153;50.960;6.220;2023-03-13T07:14:49;98989.25;;;17.29;56.13
50268;BME280;36153;50.960;6.220;2023-03-13T07:17:49;98985.56;;;17.55;55.67
50268;BME280;36153;50.960;6.220;2023-03-13T07:20:54;98962.66;;;17.57;54.75
50268;BME280;36153;50.960;6.220;2023-03-13T07:23:55;98974.13;;;17.77;54.65
50268;BME280;36153;50.960;6.220;2023-03-13T07:26:56;98978.00;;;17.68;54.08
50268;BME280;36153;50.960;6.220;2023-03-13T07:29:56;98982.88;;;18.00;53.74
50268;BME280;36153;50.960;6.220;2023-03-13T07:32:57;98978.50;;;17.99;53.94
50268;BME280;36153;50.960;6.220;2023-03-13T07:35:58;98979.34;;;17.79;53.92
50268;BME280;36153;50.960;6.220;2023-03-13T07:38:58;98984.44;;;18.04;53.47
50268;BME280;36153;50.960;6.220;2023-03-13T07:41:59;98984.66;;;17.77;54.06
50268;BME280;36153;50.960;6.220;2023-03-13T07:44:59;98972.69;;;17.70;54.33
50268;BME280;36153;50.960;6.220;2023-03-13T07:48:00;98984.72;;;17.75;54.00
50268;BME280;36153;50.960;6.220;2023-03-13T07:51:00;98979.34;;;17.99;53.61
50268;BME280;36153;50.960;6.220;2023-03-13T07:54:01;98966.00;;;18.04;53.37
50268;BME280;36153;50.960;6.220;2023-03-13T07:57:01;98973.59;;;17.89;53.97
50268;BME280;36153;50.960;6.220;2023-03-13T08:00:02;98978.53;;;17.77;54.62
50268;BME280;36153;50.960;6.220;2023-03-13T08:03:03;98979.53;;;17.74;54.42
50268;BME280;36153;50.960;6.220;2023-03-13T08:06:11;98987.91;;;18.04;53.76
50268;BME280;36153;50.960;6.220;2023-03-13T08:09:12;98998.16;;;17.69;54.88
50268;BME280;36153;50.960;6.220;2023-03-13T08:12:12;98962.69;;;17.78;55.07
50268;BME280;36153;50.960;6.220;2023-03-13T08:15:13;98974.97;;;18.00;54.59
50268;BME280;36153;50.960;6.220;2023-03-13T08:18:13;98975.38;;;17.68;55.26
50268;BME280;36153;50.960;6.220;2023-03-13T08:21:16;98986.88;;;17.66;56.17
50268;BME280;36153;50.960;6.220;2023-03-13T08:24:17;98982.44;;;17.88;55.41
50268;BME280;36153;50.960;6.220;2023-03-13T08:27:17;98985.84;;;17.90;55.87
50268;BME280;36153;50.960;6.220;2023-03-13T08:30:17;98982.34;;;17.91;56.06
50268;BME280;36153;50.960;6.220;2023-03-13T08:33:18;98973.38;;;17.96;56.29
50268;BME280;36153;50.960;6.220;2023-03-13T08:36:20;98972.06;;;18.06;56.00
50268;BME280;36153;50.960;6.220;2023-03-13T08:39:23;98950.72;;;17.71;56.65
50268;BME280;36153;50.960;6.220;2023-03-13T08:42:24;98956.00;;;17.91;56.72
50268;BME280;36153;50.960;6.220;2023-03-13T08:45:24;98953.47;;;18.09;56.21
50268;BME280;36153;50.960;6.220;2023-03-13T08:48:24;98965.66;;;18.12;55.87
50268;BME280;36153;50.960;6.220;2023-03-13T08:51:26;98956.00;;;18.12;55.93
50268;BME280;36153;50.960;6.220;2023-03-13T08:54:27;98958.56;;;18.14;56.23
50268;BME280;36153;50.960;6.220;2023-03-13T08:57:27;98962.69;;;18.38;55.27
50268;BME280;36153;50.960;6.220;2023-03-13T09:00:28;98952.38;;;18.34;55.30
50268;BME280;36153;50.960;6.220;2023-03-13T09:03:28;98958.22;;;18.79;54.26
50268;BME280;36153;50.960;6.220;2023-03-13T09:06:29;98967.34;;;18.71;54.63
50268;BME280;36153;50.960;6.220;2023-03-13T09:09:29;98961.03;;;18.95;54.74
50268;BME280;36153;50.960;6.220;2023-03-13T09:12:30;98953.97;;;19.32;53.08
50268;BME280;36153;50.960;6.220;2023-03-13T09:15:30;98956.84;;;18.90;54.57
50268;BME280;36153;50.960;6.220;2023-03-13T09:18:31;98933.69;;;18.97;54.37
50268;BME280;36153;50.960;6.220;2023-03-13T09:21:33;98946.19;;;18.73;55.14
50268;BME280;36153;50.960;6.220;2023-03-13T09:24:34;98954.47;;;18.65;55.53
50268;BME280;36153;50.960;6.220;2023-03-13T09:27:34;98948.44;;;18.44;56.06
50268;BME280;36153;50.960;6.220;2023-03-13T09:30:35;98935.81;;;18.89;55.23
50268;BME280;36153;50.960;6.220;2023-03-13T09:33:36;98927.19;;;18.66;55.34
50268;BME280;36153;50.960;6.220;2023-03-13T09:36:36;98925.63;;;18.43;55.79
50268;BME280;36153;50.960;6.220;2023-03-13T09:39:37;98917.44;;;18.68;55.00
50268;BME280;36153;50.960;6.220;2023-03-13T09:42:58;98917.66;;;19.37;53.75
50268;BME280;36153;50.960;6.220;2023-03-13T09:46:02;98914.88;;;19.22;54.15
50268;BME280;36153;50.960;6.220;2023-03-13T09:55:20;98909.72;;;19.02;54.57
50268;BME280;36153;50.960;6.220;2023-03-13T09:58:27;98900.50;;;19.28;54.09
50268;BME280;36153;50.960;6.220;2023-03-13T10:01:29;98889.41;;;19.21;53.45
50268;BME280;36153;50.960;6.220;2023-03-13T10:04:37;98889.25;;;19.59;53.04
50268;BME280;36153;50.960;6.220;2023-03-13T10:07:39;98891.97;;;19.58;53.38
50268;BME280;36153;50.960;6.220;2023-03-13T10:10:45;98895.38;;;19.42;53.75
50268;BME280;36153;50.960;6.220;2023-03-13T10:13:51;98897.16;;;19.24;53.91
50268;BME280;36153;50.960;6.220;2023-03-13T10:17:14;98883.41;;;19.88;52.54
50268;BME280;36153;50.960;6.220;2023-03-13T10:20:27;98885.06;;;19.90;52.11
50268;BME280;36153;50.960;6.220;2023-03-13T10:23:38;98879.91;;;19.87;51.66
50268;BME280;36153;50.960;6.220;2023-03-13T10:26:39;98874.50;;;20.06;51.52
50268;BME280;36153;50.960;6.220;2023-03-13T10:29:40;98870.63;;;20.29;51.37
50268;BME280;36153;50.960;6.220;2023-03-13T10:32:40;98877.22;;;20.54;50.69
50268;BME280;36153;50.960;6.220;2023-03-13T10:35:41;98858.00;;;20.19;51.39
50268;BME280;36153;50.960;6.220;2023-03-13T10:38:53;98859.19;;;20.93;50.34
50268;BME280;36153;50.960;6.220;2023-03-13T10:42:07;98840.34;;;20.19;50.82
50268;BME280;36153;50.960;6.220;2023-03-13T10:45:16;98842.06;;;20.84;50.54
50268;BME280;36153;50.960;6.220;2023-03-13T10:51:21;98818.72;;;20.28;50.72
50268;BME280;36153;50.960;6.220;2023-03-13T10:54:31;98827.66;;;20.10;51.94
50268;BME280;36153;50.960;6.220;2023-03-13T10:57:34;98800.03;;;20.00;51.72
50268;BME280;36153;50.960;6.220;2023-03-13T11:00:37;98829.97;;;20.48;51.50
50268;BME280;36153;50.960;6.220;2023-03-13T11:03:38;98796.66;;;19.47;51.87
50268;BME280;36153;50.960;6.220;2023-03-13T11:06:39;98796.66;;;19.47;52.10
50268;BME280;36153;50.960;6.220;2023-03-13T11:09:39;98796.72;;;19.96;51.64
50268;BME280;36153;50.960;6.220;2023-03-13T11:12:52;98798.94;;;20.36;50.49
50268;BME280;36153;50.960;6.220;2023-03-13T11:15:57;98813.19;;;20.17;51.12
50268;BME280;36153;50.960;6.220;2023-03-13T11:25:27;98775.88;;;19.74;52.33
50268;BME280;36153;50.960;6.220;2023-03-13T11:29:08;98763.56;;;20.38;50.57
50268;BME280;36153;50.960;6.220;2023-03-13T11:32:22;98746.16;;;20.34;50.98
50268;BME280;36153;50.960;6.220;2023-03-13T11:35:39;98733.69;;;20.52;50.97
50268;BME280;36153;50.960;6.220;2023-03-13T11:38:53;98731.28;;;20.63;50.51
50268;BME280;36153;50.960;6.220;2023-03-13T11:42:02;98742.75;;;21.09;50.07
50268;BME280;36153;50.960;6.220;2023-03-13T11:52:08;98729.19;;;21.29;48.49
50268;BME280;36153;50.960;6.220;2023-03-13T11:55:45;98717.63;;;21.16;49.07
50268;BME280;36153;50.960;6.220;2023-03-13T11:59:01;98718.94;;;21.09;48.47
50268;BME280;36153;50.960;6.220;2023-03-13T12:02:20;98712.34;;;21.45;48.44
50268;BME280;36153;50.960;6.220;2023-03-13T12:05:23;98693.63;;;21.19;47.90
50268;BME280;36153;50.960;6.220;2023-03-13T12:08:45;98699.84;;;21.18;48.83
50268;BME280;36153;50.960;6.220;2023-03-13T12:12:00;98688.84;;;20.51;49.25
50268;BME280;36153;50.960;6.220;2023-03-13T12:15:19;98697.59;;;20.37;48.91
50268;BME280;36153;50.960;6.220;2023-03-13T12:18:30;98690.72;;;20.49;49.96
50268;BME280;36153;50.960;6.220;2023-03-13T12:21:49;98702.97;;;21.10;48.45
50268;BME280;36153;50.960;6.220;2023-03-13T12:25:10;98685.75;;;21.32;47.18
50268;BME280;36153;50.960;6.220;2023-03-13T12:31:31;98670.47;;;21.08;48.16
50268;BME280;36153;50.960;6.220;2023-03-13T12:38:08;98665.31;;;21.77;46.60
50268;BME280;36153;50.960;6.220;2023-03-13T12:44:22;98673.69;;;21.42;46.91
50268;BME280;36153;50.960;6.220;2023-03-13T12:54:05;98653.69;;;21.65;46.84
50268;BME280;36153;50.960;6.220;2023-03-13T13:00:21;98649.56;;;21.47;45.55
50268;BME280;36153;50.960;6.220;2023-03-13T13:03:29;98629.53;;;21.85;45.25
50268;BME280;36153;50.960;6.220;2023-03-13T13:16:17;98635.03;;;20.82;47.06
50268;BME280;36153;50.960;6.220;2023-03-13T13:25:38;98624.38;;;20.98;47.42
50268;BME280;36153;50.960;6.220;2023-03-13T13:28:38;98618.34;;;20.96;46.88
50268;BME280;36153;50.960;6.220;2023-03-13T13:31:53;98623.16;;;20.89;47.21
50268;BME280;36153;50.960;6.220;2023-03-13T13:35:32;98617.09;;;20.87;47.82
50268;BME280;36153;50.960;6.220;2023-03-13T13:38:35;98610.66;;;20.91;47.56
50268;BME280;36153;50.960;6.220;2023-03-13T13:41:36;98602.50;;;20.66;48.29
50268;BME280;36153;50.960;6.220;2023-03-13T13:44:56;98599.00;;;20.51;48.42
50268;BME280;36153;50.960;6.220;2023-03-13T13:48:26;98584.31;;;20.90;48.08
50268;BME280;36153;50.960;6.220;2023-03-13T13:51:28;98565.13;;;20.72;48.39
50268;BME280;36153;50.960;6.220;2023-03-13T13:54:35;98563.84;;;20.34;48.88
50268;BME280;36153;50.960;6.220;2023-03-13T13:58:18;98571.59;;;20.37;48.75
50268;BME280;36153;50.960;6.220;2023-03-13T14:01:21;98566.38;;;20.21;49.04
50268;BME280;36153;50.960;6.220;2023-03-13T14:04:32;98552.88;;;20.85;48.18
50268;BME280;36153;50.960;6.220;2023-03-13T14:10:38;98543.53;;;20.35;49.12
50268;BME280;36153;50.960;6.220;2023-03-13T14:13:40;98552.63;;;20.45;48.52
50268;BME280;36153;50.960;6.220;2023-03-13T14:16:54;98543.19;;;20.55;49.03
50268;BME280;36153;50.960;6.220;2023-03-13T14:19:58;98552.72;;;20.58;48.21
50268;BME280;36153;50.960;6.220;2023-03-13T14:23:01;98548.00;;;20.34;48.47
50268;BME280;36153;50.960;6.220;2023-03-13T14:29:17;98537.84;;;19.98;48.27
50268;BME280;36153;50.960;6.220;2023-03-13T14:32:24;98545.34;;;20.20;48.67
50268;BME280;36153;50.960;6.220;2023-03-13T14:35:25;98535.25;;;20.26;47.98
50268;BME280;36153;50.960;6.220;2023-03-13T14:38:26;98525.31;;;20.16;48.89
50268;BME280;36153;50.960;6.220;2023-03-13T14:41:32;98512.53;;;19.77;49.18
50268;BME280;36153;50.960;6.220;2023-03-13T14:44:35;98524.03;;;19.92;48.63
50268;BME280;36153;50.960;6.220;2023-03-13T14:47:36;98523.91;;;20.10;48.75
50268;BME280;36153;50.960;6.220;2023-03-13T14:50:36;98522.81;;;19.98;48.95
50268;BME280;36153;50.960;6.220;2023-03-13T14:53:37;98505.84;;;20.02;48.46
50268;BME280;36153;50.960;6.220;2023-03-13T14:56:39;98501.50;;;19.87;49.08
50268;BME280;36153;50.960;6.220;2023-03-13T14:59:42;98496.56;;;20.40;48.15
50268;BME280;36153;50.960;6.220;2023-03-13T15:02:43;98490.91;;;20.46;47.98
50268;BME280;36153;50.960;6.220;2023-03-13T15:05:45;98480.72;;;20.40;48.29
50268;BME280;36153;50.960;6.220;2023-03-13T15:08:48;98476.97;;;20.73;47.50
50268;BME280;36153;50.960;6.220;2023-03-13T15:11:58;98477.25;;;20.68;45.84
50268;BME280;36153;50.960;6.220;2023-03-13T15:14:59;98467.50;;;20.40;46.59
50268;BME280;36153;50.960;6.220;2023-03-13T15:17:59;98471.47;;;20.33;46.24
50268;BME280;36153;50.960;6.220;2023-03-13T15:21:24;98462.78;;;20.16;46.89
50268;BME280;36153;50.960;6.220;2023-03-13T15:24:25;98452.88;;;19.75;48.22
50268;BME280;36153;50.960;6.220;2023-03-13T15:27:25;98450.88;;;20.52;46.19
50268;BME280;36153;50.960;6.220;2023-03-13T15:30:26;98439.53;;;20.93;44.91
50268;BME280;36153;50.960;6.220;2023-03-13T15:33:28;98442.00;;;20.82;44.56
50268;BME280;36153;50.960;6.220;2023-03-13T15:36:29;98437.88;;;20.49;44.55
50268;BME280;36153;50.960;6.220;2023-03-13T15:39:30;98448.25;;;20.52;44.57
50268;BME280;36153;50.960;6.220;2023-03-13T15:42:31;98426.19;;;20.10;45.40
50268;BME280;36153;50.960;6.220;2023-03-13T15:45:31;98409.19;;;20.00;45.50
50268;BME280;36153;50.960;6.220;2023-03-13T15:48:32;98415.38;;;19.84;45.94
50268;BME280;36153;50.960;6.220;2023-03-13T15:51:32;98401.94;;;20.32;45.03
50268;BME280;36153;50.960;6.220;2023-03-13T15:54:32;98393.22;;;20.44;44.53
50268;BME280;36153;50.960;6.220;2023-03-13T15:57:35;98390.78;;;19.98;44.51
50268;BME280;36153;50.960;6.220;2023-03-13T16:00:36;98385.41;;;19.85;45.30
50268;BME280;36153;50.960;6.220;2023-03-13T16:03:37;98386.44;;;19.83;44.94
50268;BME280;36153;50.960;6.220;2023-03-13T16:06:38;98374.75;;;19.42;45.87
50268;BME280;36153;50.960;6.220;2023-03-13T16:09:40;98381.91;;;19.40;46.31
50268;BME280;36153;50.960;6.220;2023-03-13T16:12:40;98362.50;;;19.10;46.52
50268;BME280;36153;50.960;6.220;2023-03-13T16:15:41;98367.44;;;19.01;47.18
50268;BME280;36153;50.960;6.220;2023-03-13T16:18:41;98354.38;;;18.83;46.82
50268;BME280;36153;50.960;6.220;2023-03-13T16:21:42;98353.72;;;18.96;45.98
50268;BME280;36153;50.960;6.220;2023-03-13T16:24:47;98336.00;;;18.98;46.64
50268;BME280;36153;50.960;6.220;2023-03-13T16:27:47;98343.16;;;18.96;47.22
50268;BME280;36153;50.960;6.220;2023-03-13T16:30:47;98339.94;;;18.90;46.10
50268;BME280;36153;50.960;6.220;2023-03-13T16:33:49;98349.50;;;19.07;46.11
50268;BME280;36153;50.960;6.220;2023-03-13T16:36:50;98353.19;;;18.89;46.77
50268;BME280;36153;50.960;6.220;2023-03-13T16:39:50;98355.75;;;18.90;46.74
50268;BME280;36153;50.960;6.220;2023-03-13T16:42:50;98371.84;;;19.16;46.40
50268;BME280;36153;50.960;6.220;2023-03-13T16:45:51;98361.13;;;19.19;46.51
50268;BME280;36153;50.960;6.220;2023-03-13T16:48:51;98349.09;;;18.99;46.43
50268;BME280;36153;50.960;6.220;2023-03-13T16:51:52;98353.94;;;18.91;46.33
50268;BME280;36153;50.960;6.220;2023-03-13T16:54:52;98349.53;;;18.91;46.49
50268;BME280;36153;50.960;6.220;2023-03-13T16:57:56;98348.91;;;18.86;46.61
50268;BME280;36153;50.960;6.220;2023-03-13T17:00:57;98357.28;;;18.95;46.13
50268;BME280;36153;50.960;6.220;2023-03-13T17:03:58;98348.78;;;18.89;46.02
50268;BME280;36153;50.960;6.220;2023-03-13T17:06:58;98351.66;;;18.69;46.02
50268;BME280;36153;50.960;6.220;2023-03-13T17:09:59;98343.00;;;18.67;46.21
50268;BME280;36153;50.960;6.220;2023-03-13T17:13:00;98327.28;;;18.65;46.28
50268;BME280;36153;50.960;6.220;2023-03-13T17:16:00;98321.06;;;18.50;46.66
50268;BME280;36153;50.960;6.220;2023-03-13T17:19:23;98330.59;;;18.37;47.13
50268;BME280;36153;50.960;6.220;2023-03-13T17:23:00;98321.06;;;18.34;47.14